createdAt,value
2018-04-22T00:00:28.622Z,16.20
2018-04-22T00:02:58.884Z,16.20
2018-04-22T00:05:29.043Z,16.10
2018-04-22T00:07:57.459Z,16.10
2018-04-22T00:10:25.401Z,16.00
2018-04-22T00:12:53.312Z,16.00
2018-04-22T00:15:21.214Z,16.00
2018-04-22T00:17:50.416Z,15.90
2018-04-22T00:20:18.369Z,15.90
2018-04-22T00:22:46.282Z,15.90
2018-04-22T00:25:14.197Z,15.90
2018-04-22T00:27:42.096Z,15.90
2018-04-22T00:30:10.011Z,15.80
2018-04-22T00:32:37.933Z,15.70
2018-04-22T00:35:05.859Z,15.60
2018-04-22T00:37:33.818Z,15.60
2018-04-22T00:40:01.733Z,15.60
2018-04-22T00:42:29.645Z,15.50
2018-04-22T00:44:57.569Z,15.60
2018-04-22T00:47:25.494Z,15.60
2018-04-22T00:49:53.399Z,15.50
2018-04-22T00:52:21.301Z,15.40
2018-04-22T00:54:49.225Z,15.30
2018-04-22T00:57:17.131Z,15.40
2018-04-22T00:59:45.043Z,15.40
2018-04-22T01:02:12.981Z,15.40
2018-04-22T01:04:40.885Z,15.30
2018-04-22T01:07:08.797Z,15.30
2018-04-22T01:09:36.742Z,15.40
2018-04-22T01:12:04.655Z,15.30
2018-04-22T01:14:32.564Z,15.30
2018-04-22T01:17:00.510Z,15.30
2018-04-22T01:19:28.426Z,15.20
2018-04-22T01:21:56.330Z,15.10
2018-04-22T01:24:24.275Z,15.10
2018-04-22T01:26:52.186Z,15.10
2018-04-22T01:29:20.094Z,15.10
2018-04-22T01:31:48.025Z,15.00
2018-04-22T01:34:15.942Z,15.00
2018-04-22T01:36:44.303Z,14.90
2018-04-22T01:39:12.259Z,14.90
2018-04-22T01:41:40.165Z,14.90
2018-04-22T01:44:08.092Z,14.90
2018-04-22T01:46:36.014Z,14.90
2018-04-22T01:49:03.913Z,14.80
2018-04-22T01:51:31.829Z,14.70
2018-04-22T01:53:59.933Z,14.60
2018-04-22T01:56:27.853Z,14.60
2018-04-22T01:58:55.776Z,14.60
2018-04-22T02:01:23.714Z,14.50
2018-04-22T02:03:51.613Z,14.40
2018-04-22T02:06:19.530Z,14.50
2018-04-22T02:08:47.468Z,14.40
2018-04-22T02:11:15.416Z,14.40
2018-04-22T02:13:43.616Z,14.40
2018-04-22T02:16:11.561Z,14.30
2018-04-22T02:18:39.473Z,14.30
2018-04-22T02:21:07.486Z,14.30
2018-04-22T02:23:35.425Z,14.30
2018-04-22T02:26:03.363Z,14.40
2018-04-22T02:28:31.261Z,14.40
2018-04-22T02:30:59.185Z,14.30
2018-04-22T02:33:27.837Z,14.30
2018-04-22T02:41:54.347Z,14.50
2018-04-22T02:54:03.160Z,14.20
2018-04-22T02:56:31.061Z,14.30
2018-04-22T02:58:58.981Z,14.20
2018-04-22T03:01:26.903Z,14.20
2018-04-22T03:03:54.811Z,14.20
2018-04-22T03:06:22.705Z,14.20
2018-04-22T03:08:50.636Z,14.20
2018-04-22T03:11:18.548Z,14.20
2018-04-22T03:13:46.471Z,14.20
2018-04-22T03:16:14.400Z,14.20
2018-04-22T03:18:42.310Z,14.10
2018-04-22T03:21:10.208Z,14.10
2018-04-22T03:23:41.898Z,14.00
2018-04-22T03:26:09.823Z,14.00
2018-04-22T03:28:37.727Z,13.90
2018-04-22T03:31:05.674Z,13.90
2018-04-22T03:33:34.240Z,14.00
2018-04-22T03:36:02.157Z,13.90
2018-04-22T03:38:30.108Z,13.90
2018-04-22T03:40:58.080Z,13.90
2018-04-22T03:43:25.990Z,13.90
2018-04-22T03:45:54.033Z,13.90
2018-04-22T03:48:21.929Z,13.90
2018-04-22T03:50:49.827Z,13.90
2018-04-22T03:53:17.752Z,13.90
2018-04-22T03:55:45.670Z,13.80
2018-04-22T03:58:14.215Z,13.80
2018-04-22T04:00:42.149Z,13.80
2018-04-22T04:03:10.049Z,13.70
2018-04-22T04:05:37.952Z,13.80
2018-04-22T04:08:05.877Z,13.70
2018-04-22T04:10:33.786Z,13.70
2018-04-22T04:13:01.694Z,13.70
2018-04-22T04:15:29.617Z,13.70
2018-04-22T04:21:13.897Z,13.60
2018-04-22T04:27:23.194Z,13.50
2018-04-22T04:29:51.104Z,13.40
2018-04-22T04:32:19.727Z,13.40
2018-04-22T04:34:47.665Z,13.30
2018-04-22T04:37:15.581Z,13.20
2018-04-22T04:39:43.484Z,13.30
2018-04-22T04:42:11.418Z,13.40
2018-04-22T04:44:39.323Z,13.50
2018-04-22T04:47:07.229Z,13.50
2018-04-22T04:49:35.145Z,13.60
2018-04-22T04:52:03.047Z,13.60
2018-04-22T04:54:30.954Z,13.70
2018-04-22T04:56:58.889Z,13.70
2018-04-22T04:59:26.798Z,13.70
2018-04-22T05:01:54.722Z,13.80
2018-04-22T05:04:22.668Z,13.80
2018-04-22T05:06:50.577Z,13.90
2018-04-22T05:09:18.504Z,13.90
2018-04-22T05:11:46.428Z,13.90
2018-04-22T05:14:14.706Z,13.80
2018-04-22T05:16:42.601Z,13.80
2018-04-22T05:19:10.594Z,13.80
2018-04-22T05:21:38.981Z,13.80
2018-04-22T05:24:07.514Z,13.80
2018-04-22T05:26:35.450Z,13.90
2018-04-22T05:31:32.212Z,14.00
2018-04-22T05:34:00.154Z,14.00
2018-04-22T05:36:28.085Z,14.00
2018-04-22T05:38:56.037Z,14.00
2018-04-22T05:41:23.969Z,14.00
2018-04-22T05:43:52.309Z,14.10
2018-04-22T05:46:20.213Z,14.20
2018-04-22T05:48:48.192Z,14.20
2018-04-22T05:51:16.097Z,14.20
2018-04-22T05:53:44.002Z,14.30
2018-04-22T05:56:11.939Z,14.30
2018-04-22T05:58:40.359Z,14.30
2018-04-22T06:01:08.275Z,14.20
2018-04-22T06:03:36.251Z,14.20
2018-04-22T06:06:04.216Z,14.30
2018-04-22T06:08:32.128Z,14.40
2018-04-22T06:11:00.063Z,14.50
2018-04-22T06:13:27.971Z,14.60
2018-04-22T06:18:24.771Z,15.00
2018-04-22T06:20:52.666Z,15.20
2018-04-22T06:23:20.568Z,15.30
2018-04-22T06:25:48.489Z,15.30
2018-04-22T06:28:16.427Z,15.30
2018-04-22T06:30:44.323Z,15.30
2018-04-22T06:33:12.256Z,15.30
2018-04-22T06:35:40.162Z,15.20
2018-04-22T06:38:08.068Z,15.20
2018-04-22T06:43:04.853Z,15.20
2018-04-22T06:45:32.765Z,15.40
2018-04-22T06:48:00.709Z,15.60
2018-04-22T06:50:28.620Z,15.90
2018-04-22T06:52:57.169Z,16.10
2018-04-22T06:55:25.212Z,16.40
2018-04-22T06:57:53.120Z,16.30
2018-04-22T07:00:21.031Z,16.20
2018-04-22T07:02:48.958Z,16.20
2018-04-22T07:05:16.852Z,16.20
2018-04-22T07:10:13.635Z,16.10
2018-04-22T07:12:41.550Z,16.00
2018-04-22T07:15:10.273Z,16.00
2018-04-22T07:17:38.199Z,16.10
2018-04-22T07:20:06.097Z,16.00
2018-04-22T07:22:34.178Z,16.00
2018-04-22T07:27:30.970Z,16.00
2018-04-22T07:29:58.894Z,15.90
2018-04-22T07:32:26.877Z,16.00
2018-04-22T07:34:55.002Z,16.00
2018-04-22T07:37:22.915Z,16.10
2018-04-22T07:39:50.874Z,16.10
2018-04-22T07:44:48.519Z,16.30
2018-04-22T07:47:16.477Z,16.30
2018-04-22T07:49:44.405Z,16.40
2018-04-22T07:52:12.380Z,16.50
2018-04-22T07:54:40.520Z,16.70
2018-04-22T07:57:08.441Z,16.80
2018-04-22T07:59:36.343Z,16.90
2018-04-22T08:02:04.273Z,17.00
2018-04-22T08:04:32.211Z,17.00
2018-04-22T08:07:00.116Z,17.10
2018-04-22T08:09:28.038Z,17.20
2018-04-22T08:11:56.162Z,17.30
2018-04-22T08:14:24.057Z,17.30
2018-04-22T08:16:51.981Z,17.40
2018-04-22T08:19:20.361Z,17.40
2018-04-22T08:21:48.283Z,17.50
2018-04-22T08:24:21.778Z,17.50
2018-04-22T08:30:02.584Z,17.70
2018-04-22T08:32:30.563Z,17.80
2018-04-22T08:34:58.465Z,17.70
2018-04-22T08:37:26.545Z,17.70
2018-04-22T08:39:54.628Z,17.70
2018-04-22T08:42:22.551Z,17.70
2018-04-22T08:44:50.486Z,17.80
2018-04-22T08:49:47.886Z,18.00
2018-04-22T08:52:15.942Z,18.10
2018-04-22T08:54:43.861Z,18.20
2018-04-22T08:57:11.785Z,18.30
2018-04-22T08:59:39.716Z,18.40
2018-04-22T09:02:07.995Z,18.50
2018-04-22T09:04:35.932Z,18.50
2018-04-22T09:07:03.877Z,18.50
2018-04-22T09:09:31.816Z,18.60
2018-04-22T09:14:28.671Z,18.80
2018-04-22T09:16:56.807Z,18.90
2018-04-22T09:19:24.773Z,19.00
2018-04-22T09:21:52.725Z,19.00
2018-04-22T09:24:20.654Z,19.10
2018-04-22T09:29:17.450Z,19.20
2018-04-22T09:31:45.365Z,19.30
2018-04-22T09:34:13.282Z,19.40
2018-04-22T09:36:41.218Z,19.50
2018-04-22T09:39:09.490Z,19.50
2018-04-22T09:41:38.917Z,19.60
2018-04-22T09:44:07.019Z,19.70
2018-04-22T09:46:34.956Z,19.80
2018-04-22T09:49:02.923Z,19.90
2018-04-22T09:51:30.878Z,20.00
2018-04-22T09:53:58.792Z,20.10
2018-04-22T09:56:26.840Z,20.20
2018-04-22T10:02:36.063Z,20.40
2018-04-22T10:05:07.899Z,20.40
2018-04-22T10:07:35.837Z,20.50
2018-04-22T10:10:03.745Z,20.60
2018-04-22T10:12:31.693Z,20.70
2018-04-22T10:14:59.614Z,20.80
2018-04-22T10:17:27.533Z,20.80
2018-04-22T10:19:55.531Z,21.00
2018-04-22T10:22:23.454Z,21.10
2018-04-22T10:24:51.375Z,21.30
2018-04-22T10:27:19.319Z,21.50
2018-04-22T10:29:47.224Z,21.50
2018-04-22T10:32:15.135Z,21.60
2018-04-22T10:34:50.450Z,21.80
2018-04-22T10:37:18.374Z,21.90
2018-04-22T10:42:15.175Z,22.10
2018-04-22T10:44:43.867Z,22.30
2018-04-22T10:47:11.786Z,22.50
2018-04-22T10:49:39.728Z,22.80
2018-04-22T10:52:07.649Z,22.90
2018-04-22T10:54:36.087Z,23.10
2018-04-22T10:57:04.335Z,23.20
2018-04-22T10:59:32.261Z,23.40
2018-04-22T11:02:00.171Z,23.60
2018-04-22T11:04:28.565Z,23.90
2018-04-22T11:06:56.482Z,24.20
2018-04-22T11:09:24.827Z,24.50
2018-04-22T11:11:52.950Z,24.70
2018-04-22T11:14:21.251Z,24.80
2018-04-22T11:16:49.699Z,25.00
2018-04-22T11:19:17.620Z,25.30
2018-04-22T11:21:45.551Z,25.50
2018-04-22T11:24:13.510Z,25.70
2018-04-22T11:26:41.728Z,26.00
2018-04-22T11:29:10.212Z,26.20
2018-04-22T11:31:38.561Z,26.30
2018-04-22T11:34:06.494Z,26.40
2018-04-22T11:36:34.408Z,26.60
2018-04-22T11:39:02.374Z,26.90
2018-04-22T11:41:30.838Z,27.10
2018-04-22T11:43:58.772Z,27.30
2018-04-22T11:46:26.688Z,27.60
2018-04-22T11:48:54.787Z,27.90
2018-04-22T11:51:24.289Z,28.30
2018-04-22T12:00:14.498Z,30.70
2018-04-22T12:02:42.495Z,31.50
2018-04-22T12:05:10.879Z,31.90
2018-04-22T12:07:39.361Z,31.80
2018-04-22T12:10:07.323Z,31.10
2018-04-22T12:12:35.430Z,31.00
2018-04-22T12:15:03.488Z,31.40
2018-04-22T12:17:31.403Z,31.30
2018-04-22T12:19:59.922Z,31.00
2018-04-22T12:22:27.882Z,31.10
2018-04-22T12:24:56.672Z,31.10
2018-04-22T12:27:25.263Z,30.70
2018-04-22T12:29:54.050Z,30.40
2018-04-22T12:32:22.085Z,30.20
2018-04-22T12:34:50.273Z,29.80
2018-04-22T12:37:18.188Z,29.60
2018-04-22T12:39:46.317Z,29.80
2018-04-22T12:42:14.544Z,29.90
2018-04-22T12:44:42.566Z,29.90
2018-04-22T12:47:10.491Z,30.00
2018-04-22T12:49:38.498Z,30.40
2018-04-22T12:52:08.365Z,30.60
2018-04-22T12:54:36.785Z,31.00
2018-04-22T12:57:04.790Z,31.40
2018-04-22T12:59:33.202Z,31.70
2018-04-22T13:02:01.119Z,32.30
2018-04-22T13:04:29.070Z,32.90
2018-04-22T13:06:57.013Z,33.40
2018-04-22T13:09:25.111Z,33.40
2018-04-22T13:11:53.038Z,33.10
2018-04-22T13:14:20.944Z,33.30
2018-04-22T13:16:49.054Z,33.90
2018-04-22T13:19:17.182Z,33.80
2018-04-22T13:21:45.378Z,33.60
2018-04-22T13:24:13.417Z,33.90
2018-04-22T13:26:41.734Z,34.40
2018-04-22T13:29:09.664Z,34.90
2018-04-22T13:31:37.783Z,35.00
2018-04-22T13:34:05.742Z,35.30
2018-04-22T13:36:34.068Z,36.30
2018-04-22T13:39:02.322Z,37.20
2018-04-22T13:41:30.349Z,37.10
2018-04-22T13:43:58.324Z,36.70
2018-04-22T13:46:26.396Z,35.80
2018-04-22T13:48:54.485Z,35.70
2018-04-22T13:51:22.511Z,36.20
2018-04-22T13:53:50.608Z,36.20
2018-04-22T13:56:18.575Z,36.60
2018-04-22T13:58:46.754Z,36.50
2018-04-22T14:01:14.815Z,36.60
2018-04-22T14:03:42.959Z,37.10
2018-04-22T14:06:11.022Z,37.10
2018-04-22T14:08:38.961Z,35.90
2018-04-22T14:11:06.914Z,33.40
2018-04-22T14:13:34.975Z,31.50
2018-04-22T14:16:07.555Z,30.70
2018-04-22T14:18:35.516Z,30.30
2018-04-22T14:21:03.481Z,31.10
2018-04-22T14:23:31.502Z,31.20
2018-04-22T14:25:59.424Z,32.10
2018-04-22T14:30:56.395Z,31.50
2018-04-22T14:33:24.338Z,32.70
2018-04-22T14:35:52.252Z,33.70
2018-04-22T14:38:20.846Z,32.50
2018-04-22T14:40:49.013Z,30.90
2018-04-22T14:43:18.393Z,29.90
2018-04-22T14:45:58.019Z,29.40
2018-04-22T14:48:25.962Z,29.00
2018-04-22T14:50:53.869Z,28.80
2018-04-22T14:53:22.559Z,28.40
2018-04-22T14:55:51.431Z,28.00
2018-04-22T14:58:19.397Z,27.70
2018-04-22T15:00:47.555Z,27.60
2018-04-22T15:03:15.464Z,27.70
2018-04-22T15:05:43.376Z,29.40
2018-04-22T15:08:11.445Z,30.90
2018-04-22T15:10:39.368Z,30.70
2018-04-22T15:19:06.625Z,29.70
2018-04-22T15:21:34.728Z,30.60
2018-04-22T15:24:03.286Z,31.00
2018-04-22T15:26:31.225Z,30.80
2018-04-22T15:28:59.129Z,30.00
2018-04-22T15:31:27.449Z,29.20
2018-04-22T15:33:55.388Z,28.50
2018-04-22T15:36:23.294Z,28.10
2018-04-22T15:38:51.367Z,27.90
2018-04-22T15:41:19.312Z,28.00
2018-04-22T15:43:47.977Z,27.90
2018-04-22T15:46:16.509Z,28.00
2018-04-22T15:48:44.609Z,28.10
2018-04-22T15:51:12.705Z,28.10
2018-04-22T15:53:40.626Z,28.00
2018-04-22T15:56:09.098Z,27.70
2018-04-22T15:58:37.107Z,27.60
2018-04-22T16:01:05.184Z,27.50
2018-04-22T16:03:33.152Z,27.60
2018-04-22T16:06:01.690Z,27.60
2018-04-22T16:08:29.806Z,27.70
2018-04-22T16:10:58.157Z,27.70
2018-04-22T16:13:26.095Z,27.60
2018-04-22T16:15:54.713Z,27.50
2018-04-22T16:18:22.703Z,27.30
2018-04-22T16:23:19.516Z,26.80
2018-04-22T16:25:47.542Z,26.70
2018-04-22T16:28:16.230Z,26.70
2018-04-22T16:30:44.144Z,26.60
2018-04-22T16:33:12.060Z,26.40
2018-04-22T16:35:40.120Z,26.40
2018-04-22T16:38:08.387Z,26.20
2018-04-22T16:40:36.298Z,25.90
2018-04-22T16:43:04.266Z,25.70
2018-04-22T16:45:32.170Z,25.60
2018-04-22T16:48:00.274Z,25.50
2018-04-22T16:50:28.276Z,25.50
2018-04-22T16:52:56.205Z,25.40
2018-04-22T16:55:24.151Z,25.40
2018-04-22T16:57:52.077Z,25.30
2018-04-22T17:00:20.689Z,25.10
2018-04-22T17:02:49.002Z,25.00
2018-04-22T17:05:16.911Z,24.90
2018-04-22T17:07:44.837Z,24.90
2018-04-22T17:10:12.767Z,24.80
2018-04-22T17:12:40.734Z,24.70
2018-04-22T17:15:08.674Z,24.50
2018-04-22T17:17:37.017Z,24.40
2018-04-22T17:20:05.106Z,24.30
2018-04-22T17:22:33.039Z,24.20
2018-04-22T17:25:01.014Z,24.20
2018-04-22T17:27:31.187Z,24.10
2018-04-22T17:30:04.079Z,24.00
2018-04-22T17:32:34.507Z,23.90
2018-04-22T17:35:05.433Z,23.90
2018-04-22T17:37:35.732Z,23.80
2018-04-22T17:40:03.751Z,23.80
2018-04-22T17:42:31.773Z,23.70
2018-04-22T17:45:01.436Z,23.60
2018-04-22T17:47:29.390Z,23.50
2018-04-22T17:49:57.301Z,23.30
2018-04-22T17:52:25.310Z,23.30
2018-04-22T17:54:53.248Z,23.20
2018-04-22T17:57:22.041Z,23.10
2018-04-22T18:02:19.623Z,23.00
2018-04-22T18:04:47.559Z,22.90
2018-04-22T18:07:15.486Z,22.90
2018-04-22T18:09:44.207Z,22.90
2018-04-22T18:12:12.147Z,22.80
2018-04-22T18:14:40.079Z,22.80
2018-04-22T18:17:09.292Z,22.70
2018-04-22T18:19:37.254Z,22.70
2018-04-22T18:22:05.193Z,22.70
2018-04-22T18:24:33.243Z,22.60
2018-04-22T18:27:01.154Z,22.60
2018-04-22T18:31:58.712Z,22.50
2018-04-22T18:34:27.658Z,22.50
2018-04-22T18:36:55.730Z,22.50
2018-04-22T18:39:23.688Z,22.50
2018-04-22T18:41:51.673Z,22.40
2018-04-22T18:44:19.663Z,22.30
2018-04-22T18:46:48.645Z,22.20
2018-04-22T18:49:16.892Z,22.20
2018-04-22T18:51:44.838Z,22.20
2018-04-22T18:54:13.069Z,22.20
2018-04-22T18:56:41.030Z,22.20
2018-04-22T18:59:09.028Z,22.10
2018-04-22T19:01:37.041Z,22.00
2018-04-22T19:04:05.082Z,21.90
2018-04-22T19:06:33.283Z,21.80
2018-04-22T19:09:01.271Z,21.70
2018-04-22T19:11:29.301Z,21.50
2018-04-22T19:13:57.262Z,21.00
2018-04-22T19:16:25.264Z,20.60
2018-04-22T19:18:53.905Z,20.20
2018-04-22T19:21:21.950Z,20.00
2018-04-22T19:23:49.976Z,19.80
2018-04-22T19:26:17.953Z,19.70
2018-04-22T19:28:45.945Z,19.50
2018-04-22T19:31:14.676Z,19.50
2018-04-22T19:33:42.714Z,19.60
2018-04-22T19:36:10.725Z,19.60
2018-04-22T19:38:38.731Z,19.60
2018-04-22T19:41:06.734Z,19.50
2018-04-22T19:43:34.726Z,19.50
2018-04-22T19:46:02.805Z,19.50
2018-04-22T19:48:30.799Z,19.50
2018-04-22T19:50:58.827Z,19.40
2018-04-22T19:53:26.860Z,19.50
2018-04-22T19:55:54.860Z,19.50
2018-04-22T19:58:22.874Z,19.30
2018-04-22T20:00:50.901Z,19.20
2018-04-22T20:03:18.881Z,19.20
2018-04-22T20:05:46.864Z,19.10
2018-04-22T20:08:14.898Z,19.10
2018-04-22T20:10:42.875Z,19.20
2018-04-22T20:13:10.856Z,19.10
2018-04-22T20:15:38.947Z,19.10
2018-04-22T20:18:06.899Z,19.00
2018-04-22T20:20:34.847Z,19.10
2018-04-22T20:23:02.825Z,19.00
2018-04-22T20:25:30.789Z,18.90
2018-04-22T20:27:58.761Z,18.80
2018-04-22T20:30:26.959Z,18.80
2018-04-22T20:32:54.879Z,18.70
2018-04-22T20:35:22.845Z,18.70
2018-04-22T20:37:50.803Z,18.70
2018-04-22T20:40:18.733Z,18.60
2018-04-22T20:42:46.667Z,18.60
2018-04-22T20:45:14.756Z,18.60
2018-04-22T20:47:42.683Z,18.60
2018-04-22T20:50:10.595Z,18.60
2018-04-22T20:52:39.569Z,18.50
2018-04-22T20:55:07.579Z,18.50
2018-04-22T20:57:35.792Z,18.50
2018-04-22T21:00:03.762Z,18.50
2018-04-22T21:02:32.816Z,18.50
2018-04-22T21:05:01.506Z,18.40
2018-04-22T21:07:29.789Z,18.40
2018-04-22T21:09:57.727Z,18.40
2018-04-22T21:12:25.654Z,18.30
2018-04-22T21:14:53.902Z,18.20
2018-04-22T21:17:21.838Z,18.10
2018-04-22T21:19:49.767Z,18.00
2018-04-22T21:22:17.814Z,18.00
2018-04-22T21:24:46.165Z,18.00
2018-04-22T21:27:14.438Z,18.00
2018-04-22T21:29:42.500Z,18.00
2018-04-22T21:32:10.795Z,18.00
2018-04-22T21:34:38.719Z,18.00
2018-04-22T21:37:06.727Z,18.00
2018-04-22T21:39:34.685Z,18.10
2018-04-22T21:42:02.614Z,18.00
2018-04-22T21:44:30.551Z,17.90
2018-04-22T21:46:58.473Z,17.80
2018-04-22T21:49:26.387Z,17.80
2018-04-22T21:51:54.442Z,17.80
2018-04-22T21:54:22.379Z,17.80
2018-04-22T21:56:50.319Z,17.80
2018-04-22T21:59:18.263Z,17.80
2018-04-22T22:01:46.195Z,17.70
2018-04-22T22:04:14.193Z,17.80
2018-04-22T22:06:42.133Z,17.80
2018-04-22T22:11:38.938Z,17.80
2018-04-22T22:14:07.500Z,17.80
2018-04-22T22:16:35.422Z,17.80
2018-04-22T22:19:04.256Z,17.80
2018-04-22T22:21:32.925Z,17.70
2018-04-22T22:24:00.834Z,17.60
2018-04-22T22:26:28.996Z,17.50
2018-04-22T22:28:56.989Z,17.40
2018-04-22T22:31:24.906Z,17.30
2018-04-22T22:33:52.843Z,17.30
2018-04-22T22:36:21.141Z,17.30
2018-04-22T22:38:49.072Z,17.40
2018-04-22T22:41:16.995Z,17.40
2018-04-22T22:43:44.949Z,17.50
2018-04-22T22:46:12.862Z,17.50
2018-04-22T22:48:40.771Z,17.40
2018-04-22T22:51:08.707Z,17.30
2018-04-22T22:53:36.630Z,17.30
2018-04-22T22:56:04.539Z,17.30
2018-04-22T22:58:33.285Z,17.40
2018-04-22T23:01:01.229Z,17.30
2018-04-22T23:03:29.157Z,17.30
2018-04-22T23:05:57.085Z,17.20
2018-04-22T23:08:24.988Z,17.10
2018-04-22T23:10:52.933Z,17.10
2018-04-22T23:13:20.861Z,17.10
2018-04-22T23:15:48.768Z,17.10
2018-04-22T23:18:16.678Z,17.10
2018-04-22T23:20:44.709Z,17.10
2018-04-22T23:23:12.636Z,17.00
2018-04-22T23:25:40.560Z,17.00
2018-04-22T23:28:08.493Z,17.00
2018-04-22T23:30:36.411Z,17.00
2018-04-22T23:33:04.338Z,17.00
2018-04-22T23:35:32.260Z,17.00
2018-04-22T23:38:00.166Z,17.00
2018-04-22T23:40:28.086Z,17.00
2018-04-22T23:42:56.027Z,17.10
2018-04-22T23:45:23.955Z,17.10
2018-04-22T23:47:51.890Z,17.10
2018-04-22T23:50:19.829Z,17.10
2018-04-22T23:52:47.752Z,17.10
2018-04-22T23:55:15.662Z,17.10
2018-04-22T23:57:44.574Z,17.00
